Time;durP1;ratioP1;P1;durP2;ratioP2;P2;SDS_P1;SDS_P2;PMS_P1;PMS_P2;Temp;Humidity;BMP_temperature;BMP_pressure;BME280_temperature;BME280_humidity;BME280_pressure;Samples;Min_cycle;Max_cycle;Signal;HPM_P1;HPM_P2
2022/06/16 00:00:38;;;;;;;11.35;6.25;;;;;;;17.10;59.04;101870.75;5046803;28;20577;-90
2022/06/16 00:03:06;;;;;;;11.85;6.35;;;;;;;17.06;58.43;101863.88;5031730;28;20047;-90
2022/06/16 00:05:34;;;;;;;11.88;6.43;;;;;;;17.04;59.05;101870.97;5049842;28;20039;-90
2022/06/16 00:08:04;;;;;;;11.90;6.38;;;;;;;17.04;59.28;101864.84;5033815;28;20051;-89
2022/06/16 00:10:30;;;;;;;11.52;6.13;;;;;;;16.98;58.99;101864.16;5050550;28;20020;-90
2022/06/16 00:12:55;;;;;;;13.07;6.30;;;;;;;16.96;58.53;101872.97;5050350;28;20112;-90
2022/06/16 00:15:23;;;;;;;10.77;6.10;;;;;;;16.95;58.55;101864.25;5054549;28;20028;-90
2022/06/16 00:17:49;;;;;;;10.48;6.30;;;;;;;16.93;58.31;101865.22;5041702;28;20743;-89
2022/06/16 00:20:14;;;;;;;12.73;6.78;;;;;;;16.95;58.24;101874.75;5049507;28;20059;-89
2022/06/16 00:22:40;;;;;;;11.20;6.57;;;;;;;16.91;58.33;101865.28;5032714;28;20544;-89
2022/06/16 00:25:06;;;;;;;12.73;6.75;;;;;;;16.91;59.08;101870.53;5049452;28;20109;-90
2022/06/16 00:27:32;;;;;;;11.07;6.60;;;;;;;16.88;58.53;101875.00;5050554;28;20029;-90
2022/06/16 00:29:58;;;;;;;11.50;7.00;;;;;;;16.85;60.65;101875.09;5049169;28;20031;-89
2022/06/16 00:32:23;;;;;;;11.07;6.32;;;;;;;16.82;60.67;101870.81;5051275;28;20064;-90
2022/06/16 00:34:49;;;;;;;10.90;6.72;;;;;;;16.79;61.04;101881.38;5045736;28;20021;-90
2022/06/16 00:37:14;;;;;;;10.00;7.00;;;;;;;16.78;60.74;101881.44;5031011;28;20025;-90
2022/06/16 00:39:40;;;;;;;12.57;6.65;;;;;;;16.72;61.20;101879.03;5040319;28;20037;-89
2022/06/16 00:42:11;;;;;;;11.90;6.72;;;;;;;16.69;59.24;101879.13;5050597;28;20025;-89
2022/06/16 00:44:45;;;;;;;11.88;6.40;;;;;;;16.70;61.31;101879.09;5049266;28;20086;-89
2022/06/16 00:47:12;;;;;;;11.85;6.63;;;;;;;16.68;61.71;101878.25;5049292;28;20036;-89
2022/06/16 00:49:42;;;;;;;15.00;6.63;;;;;;;16.64;60.81;101888.91;5038200;28;20028;-89
2022/06/16 00:52:13;;;;;;;10.27;6.60;;;;;;;16.58;59.55;101882.91;5030825;28;20452;-90
2022/06/16 00:55:05;;;;;;;11.40;6.25;;;;;;;16.55;60.08;101885.63;5049855;28;20040;-89
2022/06/16 00:57:40;;;;;;;11.45;6.63;;;;;;;16.48;60.18;101884.09;5048286;28;20102;-89
2022/06/16 01:00:20;;;;;;;10.40;6.40;;;;;;;16.48;61.41;101888.47;5049488;28;20047;-86
2022/06/16 01:02:45;;;;;;;11.77;6.55;;;;;;;16.42;60.47;101883.44;5048685;28;20052;-86
2022/06/16 01:05:11;;;;;;;12.32;7.00;;;;;;;16.34;60.51;101877.59;5048280;28;20036;-86
2022/06/16 01:07:40;;;;;;;10.57;6.75;;;;;;;16.29;60.45;101882.97;5047417;28;20021;-86
2022/06/16 01:10:07;;;;;;;11.27;6.97;;;;;;;16.27;63.64;101882.16;5046442;28;20037;-86
2022/06/16 01:16:09;;;;;;;11.05;7.00;;;;;;;16.18;61.26;101891.13;5046698;28;20078;-86
2022/06/16 01:18:49;;;;;;;13.07;6.70;;;;;;;16.10;62.30;101900.13;5029340;28;20033;-86
2022/06/16 01:21:44;;;;;;;9.75;6.72;;;;;;;16.06;63.11;101890.66;5047903;28;20135;-86
2022/06/16 01:24:22;;;;;;;;;;;;;;;16.09;61.79;101906.25;5028931;28;20025;-86
2022/06/16 01:27:11;;;;;;;10.27;6.72;;;;;;;15.99;63.22;101902.19;5045713;28;20325;-86
2022/06/16 01:30:04;;;;;;;13.38;6.95;;;;;;;15.93;63.18;101908.47;5028815;28;20056;-86
2022/06/16 01:32:44;;;;;;;10.73;6.53;;;;;;;15.90;63.96;101912.94;5049218;28;20063;-86
2022/06/16 01:35:28;;;;;;;14.60;6.80;;;;;;;15.87;63.13;101916.47;5038857;28;20112;-86
2022/06/16 01:38:35;;;;;;;10.70;6.47;;;;;;;15.84;63.57;101913.09;5042239;28;20056;-86
2022/06/16 01:41:40;;;;;;;11.52;6.50;;;;;;;15.83;64.46;101916.63;5045255;28;20028;-86
2022/06/16 01:44:25;;;;;;;12.23;7.15;;;;;;;15.72;62.74;101909.06;5034421;28;20044;-86
2022/06/16 01:46:56;;;;;;;12.52;7.25;;;;;;;15.65;63.94;101912.75;5030502;28;20607;-87
2022/06/16 01:49:27;;;;;;;12.43;7.07;;;;;;;15.60;64.69;101925.09;5045051;28;20033;-86
2022/06/16 01:52:01;;;;;;;13.18;6.80;;;;;;;15.55;63.41;101920.00;5047999;28;20029;-86
2022/06/16 01:54:39;;;;;;;13.45;6.95;;;;;;;15.54;66.63;101923.50;5040490;28;20020;-87
2022/06/16 01:57:12;;;;;;;13.88;7.13;;;;;;;15.46;65.08;101912.38;5056261;28;20545;-86
2022/06/16 01:59:48;;;;;;;12.40;6.80;;;;;;;15.40;65.60;101910.78;5048460;28;20647;-86
2022/06/16 02:02:17;;;;;;;12.95;6.95;;;;;;;15.37;66.41;101912.59;5041347;28;20548;-86
2022/06/16 02:04:53;;;;;;;10.30;6.90;;;;;;;15.29;65.62;101919.78;5049233;28;20120;-86
2022/06/16 02:07:30;;;;;;;10.75;7.03;;;;;;;15.28;66.22;101920.69;5047750;28;20079;-86
2022/06/16 02:09:58;;;;;;;12.20;6.93;;;;;;;15.21;66.60;101913.91;5046353;28;20498;-86
2022/06/16 02:15:36;;;;;;;11.27;7.22;;;;;;;15.14;66.13;101914.97;5049562;28;20031;-87
2022/06/16 02:18:05;;;;;;;11.50;6.80;;;;;;;15.06;68.15;101917.75;5044909;28;20036;-86
2022/06/16 02:20:58;;;;;;;11.30;6.85;;;;;;;14.97;67.09;101910.16;5048774;28;20024;-86
2022/06/16 02:23:24;;;;;;;11.95;7.15;;;;;;;14.89;66.94;101912.09;5055926;28;20147;-86
2022/06/16 02:25:53;;;;;;;11.43;6.90;;;;;;;14.81;69.01;101917.50;5044527;28;20025;-86
2022/06/16 02:28:19;;;;;;;12.50;7.47;;;;;;;14.76;69.28;101927.19;5048818;28;20032;-86
2022/06/16 02:31:04;;;;;;;10.52;7.10;;;;;;;14.67;68.14;101919.56;5047302;28;20588;-86
2022/06/16 02:33:52;;;;;;;;;;;;;;;14.70;66.54;101921.25;5047109;28;20036;-86
2022/06/16 02:36:38;;;;;;;12.63;7.25;;;;;;;14.60;68.00;101924.06;5044681;28;19912;-86
2022/06/16 02:39:29;;;;;;;14.43;7.47;;;;;;;14.54;69.30;101939.88;5037891;28;20033;-90
2022/06/16 02:42:08;;;;;;;13.02;7.68;;;;;;;14.51;69.79;101953.00;5043002;28;20040;-89
2022/06/16 02:44:49;;;;;;;12.18;7.55;;;;;;;14.47;69.74;101960.91;5050639;28;20483;-89
2022/06/16 02:47:47;;;;;;;14.38;8.18;;;;;;;14.44;69.03;101964.47;5046907;28;20044;-89
2022/06/16 02:50:36;;;;;;;14.40;8.00;;;;;;;14.35;69.63;101959.41;5045825;28;20028;-89
2022/06/16 02:53:18;;;;;;;11.98;7.38;;;;;;;14.32;69.21;101956.88;5046875;28;20025;-89
2022/06/16 02:55:50;;;;;;;12.48;7.47;;;;;;;14.27;69.95;101960.44;5046289;28;20113;-89
2022/06/16 02:58:19;;;;;;;11.98;7.63;;;;;;;14.20;70.03;101967.53;5041376;28;20032;-90
2022/06/16 03:00:49;;;;;;;14.18;8.15;;;;;;;14.14;70.01;101976.34;5046064;28;20033;-89
2022/06/16 03:03:16;;;;;;;10.88;7.88;;;;;;;14.14;71.44;101972.88;5047416;28;20509;-89
2022/06/16 03:05:41;;;;;;;13.95;8.18;;;;;;;14.08;71.34;101981.69;5048628;28;20036;-89
2022/06/16 03:08:07;;;;;;;12.65;8.18;;;;;;;14.03;71.07;101978.31;5028011;28;20204;-89
2022/06/16 03:10:51;;;;;;;15.18;8.15;;;;;;;14.01;71.70;101982.69;5028667;28;20037;-86
2022/06/16 03:13:17;;;;;;;14.68;7.95;;;;;;;13.99;72.15;101971.44;5048142;28;20020;-86
2022/06/16 03:15:42;;;;;;;15.55;8.27;;;;;;;13.96;69.07;101975.88;5045528;28;20410;-87
2022/06/16 03:18:08;;;;;;;14.60;7.82;;;;;;;13.96;71.63;101968.91;5045751;28;20063;-86
2022/06/16 03:20:33;;;;;;;15.30;8.13;;;;;;;13.93;70.01;101975.91;5046577;28;20061;-86
2022/06/16 03:22:58;;;;;;;14.77;8.50;;;;;;;13.91;69.78;101980.31;5045798;28;20033;-86
2022/06/16 03:25:24;;;;;;;14.70;8.80;;;;;;;13.95;72.41;101979.34;5045456;28;20025;-86
2022/06/16 03:27:49;;;;;;;15.43;8.05;;;;;;;13.91;71.35;101973.34;5047112;28;20029;-86
2022/06/16 03:30:15;;;;;;;13.07;8.27;;;;;;;13.87;71.28;101974.28;5043797;28;20021;-86
2022/06/16 03:32:40;;;;;;;14.07;8.50;;;;;;;13.85;71.80;101971.69;5054675;28;20441;-86
2022/06/16 03:35:06;;;;;;;13.88;8.25;;;;;;;13.79;70.12;101963.16;5029920;28;20037;-87
2022/06/16 03:37:31;;;;;;;15.43;7.88;;;;;;;13.81;71.79;101971.81;5038235;28;20035;-86
2022/06/16 03:39:59;;;;;;;14.10;8.55;;;;;;;13.79;72.15;101976.19;5031222;28;20517;-86
2022/06/16 03:42:24;;;;;;;15.00;8.40;;;;;;;13.74;71.72;101976.28;5047969;28;20426;-86
2022/06/16 03:44:49;;;;;;;15.75;8.82;;;;;;;13.73;71.12;101989.31;5027126;28;20044;-86
2022/06/16 03:47:14;;;;;;;13.02;8.57;;;;;;;13.78;71.81;101997.94;5038193;28;20031;-86
2022/06/16 03:49:40;;;;;;;17.13;8.90;;;;;;;13.77;72.08;101998.81;5044654;28;20052;-86
2022/06/16 03:52:17;;;;;;;17.15;8.50;;;;;;;13.75;72.84;102008.41;5037466;28;20295;-86
2022/06/16 03:54:42;;;;;;;16.05;8.48;;;;;;;13.76;72.96;102016.19;5029584;28;20033;-86
2022/06/16 03:57:08;;;;;;;15.50;8.93;;;;;;;13.74;72.24;102019.72;5043925;28;20025;-86
2022/06/16 03:59:33;;;;;;;16.25;8.68;;;;;;;13.70;70.00;102021.53;5046128;28;20877;-86
2022/06/16 04:01:59;;;;;;;13.15;8.45;;;;;;;13.74;71.21;102023.19;5045782;28;20168;-86
2022/06/16 04:04:24;;;;;;;16.88;8.63;;;;;;;13.71;69.23;102022.38;5057553;28;20032;-86
2022/06/16 04:06:51;;;;;;;15.25;8.70;;;;;;;13.69;69.76;102016.34;5023099;28;20031;-86
2022/06/16 04:09:17;;;;;;;18.38;8.95;;;;;;;13.70;72.58;102024.13;5032358;28;20417;-86
2022/06/16 04:11:42;;;;;;;15.73;8.40;;;;;;;13.71;70.37;102019.78;5040366;28;20801;-86
2022/06/16 04:14:10;;;;;;;14.35;8.85;;;;;;;13.71;69.73;102028.47;5046063;28;20139;-87
2022/06/16 04:16:45;;;;;;;15.45;9.85;;;;;;;13.72;71.25;102029.28;5045643;28;20029;-86
2022/06/16 04:19:13;;;;;;;15.82;8.57;;;;;;;13.73;70.03;102025.81;5047330;28;20028;-86
2022/06/16 04:21:41;;;;;;;13.85;8.30;;;;;;;13.74;71.36;102043.16;5045802;28;20037;-86
2022/06/16 04:24:07;;;;;;;16.50;9.20;;;;;;;13.73;70.20;102025.81;5043436;28;20539;-86
2022/06/16 04:26:33;;;;;;;17.40;9.23;;;;;;;13.73;70.10;102026.66;5042669;28;20033;-86
2022/06/16 04:28:59;;;;;;;16.52;9.35;;;;;;;13.74;71.42;102027.53;5043681;28;20029;-86
2022/06/16 04:31:25;;;;;;;18.55;9.18;;;;;;;13.75;72.15;102029.25;5029244;28;20445;-86
2022/06/16 04:33:50;;;;;;;15.23;9.88;;;;;;;13.75;70.14;102034.47;5039935;28;20021;-86
2022/06/16 04:36:16;;;;;;;17.83;9.63;;;;;;;13.75;72.10;102037.06;5043083;28;20120;-86
2022/06/16 04:38:42;;;;;;;17.17;9.43;;;;;;;13.72;70.30;102037.09;5047303;28;20040;-86
2022/06/16 04:41:07;;;;;;;18.10;9.90;;;;;;;13.74;72.09;102044.03;5046258;28;20056;-86
2022/06/16 04:43:33;;;;;;;17.48;9.90;;;;;;;13.77;73.53;102041.38;5051550;28;20079;-86
2022/06/16 04:45:59;;;;;;;18.77;10.38;;;;;;;13.78;73.90;102055.28;5040767;28;20107;-86
2022/06/16 04:48:25;;;;;;;18.02;10.05;;;;;;;13.78;72.80;102063.09;5047612;28;20159;-86
2022/06/16 04:50:51;;;;;;;19.00;10.15;;;;;;;13.81;73.79;102056.06;5054929;28;20114;-86
2022/06/16 04:53:16;;;;;;;20.60;10.88;;;;;;;13.80;73.70;102058.69;5048747;28;20064;-86
2022/06/16 04:55:41;;;;;;;19.08;10.32;;;;;;;13.79;70.63;102052.63;5046292;28;20029;-86
2022/06/16 04:58:07;;;;;;;18.55;10.38;;;;;;;13.82;73.32;102057.78;5048209;28;20048;-86
2022/06/16 05:00:32;;;;;;;16.83;10.50;;;;;;;13.86;70.70;102069.00;5044286;28;20115;-86
2022/06/16 05:02:58;;;;;;;17.05;9.95;;;;;;;13.88;72.65;102064.63;5053236;28;20528;-87
2022/06/16 05:05:23;;;;;;;18.02;10.15;;;;;;;13.92;72.71;102066.28;5050877;28;20486;-86
2022/06/16 05:07:49;;;;;;;19.15;10.45;;;;;;;13.93;71.75;102060.19;5048053;28;20477;-86
2022/06/16 05:10:14;;;;;;;17.90;10.52;;;;;;;13.95;71.77;102073.19;5046805;28;20024;-86
2022/06/16 05:12:40;;;;;;;18.30;10.00;;;;;;;13.98;72.28;102073.16;5043315;28;20335;-86
2022/06/16 05:15:06;;;;;;;17.92;9.85;;;;;;;14.01;71.27;102071.34;5041318;28;20033;-86
2022/06/16 05:17:32;;;;;;;18.27;10.48;;;;;;;14.03;70.34;102082.63;5023535;28;20410;-86
2022/06/16 05:19:57;;;;;;;17.27;9.45;;;;;;;14.07;72.07;102094.69;5044784;28;20576;-86
2022/06/16 05:22:23;;;;;;;15.97;9.40;;;;;;;14.12;72.06;102099.84;5051797;28;20259;-86
2022/06/16 05:24:49;;;;;;;15.95;9.77;;;;;;;14.17;74.01;102105.84;5030308;28;20309;-86
2022/06/16 05:27:15;;;;;;;18.33;10.00;;;;;;;14.21;70.82;102110.94;5047558;28;20111;-86
2022/06/16 05:29:41;;;;;;;18.00;9.93;;;;;;;14.24;69.19;102113.50;5043446;28;20036;-86
2022/06/16 05:32:07;;;;;;;18.05;9.27;;;;;;;14.29;70.24;102109.94;5030694;28;20032;-86
2022/06/16 05:34:35;;;;;;;17.08;9.43;;;;;;;14.34;71.49;102108.09;5047450;28;20026;-86
2022/06/16 05:37:00;;;;;;;15.27;9.43;;;;;;;14.35;70.06;102108.09;5045522;28;20513;-86
2022/06/16 05:39:25;;;;;;;16.42;8.60;;;;;;;14.42;67.05;102107.09;5049703;28;21018;-86
2022/06/16 05:41:51;;;;;;;15.10;9.17;;;;;;;14.48;69.93;102111.34;5049326;28;20104;-86
2022/06/16 05:44:16;;;;;;;17.80;9.18;;;;;;;14.53;69.15;102119.97;5047398;28;20299;-87
2022/06/16 05:46:41;;;;;;;14.27;8.10;;;;;;;14.57;69.27;102112.03;5045592;28;20660;-86
2022/06/16 05:49:07;;;;;;;13.52;8.60;;;;;;;14.62;68.30;102115.41;5049371;28;20545;-86
2022/06/16 05:51:32;;;;;;;15.85;8.05;;;;;;;14.67;65.99;102112.69;5038411;28;20029;-86
2022/06/16 05:53:58;;;;;;;18.45;8.48;;;;;;;14.74;67.35;102126.50;5047899;28;20020;-86
2022/06/16 05:56:23;;;;;;;17.10;8.43;;;;;;;14.82;66.90;102121.97;5046759;28;20032;-86
2022/06/16 05:58:48;;;;;;;15.27;7.82;;;;;;;14.88;65.09;102127.91;5045034;28;20024;-86
2022/06/16 06:01:14;;;;;;;14.30;7.47;;;;;;;14.97;65.91;102126.88;5044546;28;20047;-87
2022/06/16 06:03:41;;;;;;;14.40;6.80;;;;;;;15.08;63.00;102118.81;5044409;28;20052;-87
2022/06/16 06:06:09;;;;;;;14.23;6.75;;;;;;;15.20;63.41;102121.16;5027607;28;20375;-87
2022/06/16 06:16:54;;;;;;;8.00;4.40;;;;;;;15.59;58.55;102128.09;5040180;28;20318;-87
2022/06/16 06:19:31;;;;;;;8.52;4.00;;;;;;;15.68;56.55;102127.03;5045893;28;20024;-87
2022/06/16 06:22:16;;;;;;;8.80;3.90;;;;;;;15.78;55.10;102131.13;5022637;28;20486;-87
2022/06/16 06:24:42;;;;;;;;;;;;;;;15.85;58.17;102126.59;5042393;28;20033;-87
2022/06/16 06:27:28;;;;;;;6.40;3.78;;;;;;;15.92;57.75;102128.16;5048626;28;19912;-88
2022/06/16 06:29:54;;;;;;;7.10;3.42;;;;;;;15.94;59.28;102123.75;5050954;28;20028;-87
2022/06/16 06:32:22;;;;;;;6.97;3.22;;;;;;;16.02;56.61;102138.38;5045300;28;20460;-87
2022/06/16 06:34:48;;;;;;;7.07;3.20;;;;;;;16.06;54.25;102131.28;5044411;28;20037;-87
2022/06/16 06:37:15;;;;;;;8.88;3.15;;;;;;;16.09;53.14;102134.69;5050932;28;20403;-86
2022/06/16 06:39:42;;;;;;;8.32;3.30;;;;;;;16.15;52.83;102134.53;5050064;28;20037;-86
2022/06/16 06:42:08;;;;;;;7.93;3.40;;;;;;;16.25;53.46;102142.13;5049238;28;20060;-86
2022/06/16 06:44:34;;;;;;;8.40;3.17;;;;;;;16.31;53.67;102148.06;5049752;28;20055;-87
2022/06/16 06:47:00;;;;;;;4.95;2.95;;;;;;;16.41;51.87;102140.81;5047194;28;20021;-87
2022/06/16 06:49:26;;;;;;;5.32;3.30;;;;;;;16.49;53.45;102131.00;5047169;28;20025;-87
2022/06/16 06:51:51;;;;;;;8.63;3.10;;;;;;;16.57;54.95;102143.00;5043859;28;20040;-85
2022/06/16 06:54:18;;;;;;;5.22;2.85;;;;;;;16.68;51.30;102147.94;5043880;28;21740;-86
2022/06/16 06:56:44;;;;;;;5.70;2.97;;;;;;;16.79;53.72;102153.72;5023103;28;20367;-86
2022/06/16 06:59:18;;;;;;;9.43;3.03;;;;;;;16.94;51.68;102155.06;5045338;28;20552;-86
2022/06/16 07:01:45;;;;;;;5.47;2.78;;;;;;;17.09;54.15;102157.22;5045959;28;20045;-86
2022/06/16 07:04:10;;;;;;;5.47;2.83;;;;;;;17.27;56.57;102163.66;5045133;28;20404;-86
2022/06/16 07:06:37;;;;;;;6.30;3.08;;;;;;;17.36;52.79;102166.88;5044549;28;20611;-86
2022/06/16 07:09:02;;;;;;;6.25;2.53;;;;;;;17.45;51.04;102165.75;5045854;28;20410;-86
2022/06/16 07:11:28;;;;;;;7.10;3.08;;;;;;;17.58;50.11;102163.59;5045260;28;20497;-86
2022/06/16 07:13:53;;;;;;;4.18;2.97;;;;;;;17.68;53.17;102165.03;5047608;28;20017;-86
2022/06/16 07:16:19;;;;;;;7.55;3.03;;;;;;;17.76;49.28;102174.38;5045217;28;20294;-86
2022/06/16 07:18:45;;;;;;;6.45;2.70;;;;;;;17.90;52.47;102170.44;5049125;28;20032;-89
2022/06/16 07:21:11;;;;;;;6.32;3.00;;;;;;;18.01;50.72;102176.22;5029813;28;20044;-89
2022/06/16 07:23:36;;;;;;;6.80;2.90;;;;;;;18.16;52.61;102179.16;5047978;28;20104;-89
2022/06/16 07:26:03;;;;;;;7.33;2.67;;;;;;;18.28;49.04;102185.78;5048062;28;20150;-89
2022/06/16 07:28:28;;;;;;;7.78;3.35;;;;;;;18.44;50.94;102186.09;5046118;28;20298;-90
2022/06/16 07:30:53;;;;;;;5.88;2.78;;;;;;;18.59;48.36;102192.59;5061553;28;20036;-89
2022/06/16 07:33:19;;;;;;;4.93;2.70;;;;;;;18.70;48.72;102191.31;5047901;28;20390;-89
2022/06/16 07:35:44;;;;;;;7.18;2.72;;;;;;;18.80;47.78;102195.34;5047885;28;20405;-89
2022/06/16 07:38:11;;;;;;;5.18;2.55;;;;;;;19.04;49.33;102200.63;5027754;28;20048;-89
2022/06/16 07:40:38;;;;;;;7.65;2.88;;;;;;;19.31;47.16;102208.28;5043695;28;20032;-89
2022/06/16 07:43:04;;;;;;;6.60;2.97;;;;;;;19.66;47.49;102206.09;5040161;28;20025;-89
2022/06/16 07:45:30;;;;;;;9.07;3.28;;;;;;;20.52;44.06;102209.56;5043453;28;20033;-89
2022/06/16 07:47:57;;;;;;;6.25;3.00;;;;;;;21.72;42.92;102208.44;5044561;28;20032;-91
2022/06/16 07:50:23;;;;;;;4.85;2.80;;;;;;;22.89;39.35;102216.56;5044760;28;20056;-87
2022/06/16 07:52:48;;;;;;;5.32;2.80;;;;;;;24.03;38.15;102213.66;5044868;28;20075;-87
2022/06/16 07:55:14;;;;;;;5.75;2.97;;;;;;;24.91;36.00;102217.28;5047766;28;20534;-87
2022/06/16 07:57:41;;;;;;;8.43;2.92;;;;;;;25.51;35.15;102228.50;5047134;28;20111;-87
2022/06/16 08:00:07;;;;;;;6.68;3.33;;;;;;;25.92;32.88;102218.72;5041261;28;20064;-87
2022/06/16 08:02:33;;;;;;;4.88;2.65;;;;;;;26.42;34.87;102211.81;5047257;28;20053;-87
2022/06/16 08:04:58;;;;;;;5.93;2.90;;;;;;;26.81;35.13;102224.19;5056908;28;20037;-87
2022/06/16 08:07:23;;;;;;;5.97;2.83;;;;;;;26.89;31.68;102226.28;5051258;28;20036;-87
2022/06/16 08:09:49;;;;;;;6.20;2.92;;;;;;;26.64;33.54;102222.69;5046836;28;20287;-85
2022/06/16 08:12:14;;;;;;;7.13;3.00;;;;;;;26.42;31.98;102233.09;5047671;28;20055;-85
2022/06/16 08:14:45;;;;;;;5.03;2.58;;;;;;;26.24;36.03;102234.31;5055618;28;20827;-85
2022/06/16 08:17:14;;;;;;;4.18;2.75;;;;;;;25.82;34.62;102230.91;5037285;28;20062;-86
2022/06/16 08:19:39;;;;;;;6.85;3.00;;;;;;;25.53;36.18;102229.25;5033900;28;20526;-87
2022/06/16 08:22:05;;;;;;;5.05;2.67;;;;;;;25.35;35.64;102233.09;5029562;28;20596;-86
2022/06/16 08:24:31;;;;;;;8.18;2.78;;;;;;;25.18;35.90;102235.00;5050197;28;20024;-87
2022/06/16 08:26:57;;;;;;;5.55;3.10;;;;;;;25.09;34.07;102230.28;5051480;28;20212;-87
2022/06/16 08:29:24;;;;;;;5.57;3.00;;;;;;;24.93;35.96;102241.94;5050433;28;20025;-86
2022/06/16 08:31:49;;;;;;;5.00;2.75;;;;;;;24.67;35.89;102235.53;5051699;28;20055;-86
2022/06/16 08:34:15;;;;;;;5.57;2.78;;;;;;;24.61;36.76;102250.03;5050701;28;20057;-86
2022/06/16 08:36:40;;;;;;;5.67;2.93;;;;;;;24.53;35.37;102246.97;5051406;28;20478;-86
2022/06/16 08:39:10;;;;;;;6.18;2.80;;;;;;;24.54;37.91;102239.88;5032424;28;20294;-86
2022/06/16 08:41:51;;;;;;;6.28;3.10;;;;;;;24.81;37.41;102232.91;5050231;28;20045;-86
2022/06/16 08:44:37;;;;;;;10.80;3.25;;;;;;;24.83;38.61;102230.16;5050725;28;20078;-87
2022/06/16 08:47:25;;;;;;;9.55;3.08;;;;;;;25.07;39.43;102224.22;5050547;28;20071;-86
2022/06/16 08:50:02;;;;;;;7.30;3.03;;;;;;;24.98;37.48;102214.16;5049973;28;20083;-90
2022/06/16 08:52:30;;;;;;;6.80;3.00;;;;;;;25.01;37.62;102207.81;5051056;28;20492;-91
2022/06/16 08:55:09;;;;;;;6.47;2.92;;;;;;;25.12;36.26;102222.13;5051117;28;20021;-90
2022/06/16 08:57:55;;;;;;;8.70;3.50;;;;;;;24.80;34.24;102218.78;5021490;28;20033;-91
2022/06/16 09:00:29;;;;;;;19.20;3.60;;;;;;;24.81;37.85;102232.91;5050100;28;20024;-90
2022/06/16 09:03:09;;;;;;;6.00;3.10;;;;;;;24.97;35.52;102235.50;5061910;28;20048;-90
2022/06/16 09:05:57;;;;;;;8.23;3.15;;;;;;;25.00;37.15;102240.59;5031397;28;20021;-90
2022/06/16 09:08:46;;;;;;;4.93;3.03;;;;;;;25.12;37.59;102247.78;5014441;28;20028;-90
2022/06/16 09:11:35;;;;;;;5.57;3.20;;;;;;;25.29;39.33;102244.94;5060297;28;20028;-90
2022/06/16 09:15:10;;;;;;;5.45;3.28;;;;;;;25.25;33.97;102255.88;5043488;28;20372;-90
2022/06/16 09:17:32;;;;;;;6.72;3.45;;;;;;;25.11;38.35;102254.91;5050157;28;20449;-90
2022/06/16 09:20:16;;;;;;;7.68;3.55;;;;;;;25.16;37.68;102258.16;5049229;28;20029;-86
2022/06/16 09:23:02;;;;;;;5.93;3.35;;;;;;;25.22;36.79;102261.38;5055200;28;20029;-86
2022/06/16 09:25:35;;;;;;;7.40;3.80;;;;;;;25.27;37.91;102262.78;5053695;28;20082;-87
2022/06/16 09:28:28;;;;;;;7.28;3.55;;;;;;;25.51;36.95;102263.03;5050281;28;20032;-87
2022/06/16 09:30:57;;;;;;;7.72;3.50;;;;;;;25.50;36.08;102271.94;5049561;28;20460;-86
2022/06/16 09:33:31;;;;;;;6.60;3.70;;;;;;;25.85;36.80;102273.22;5050189;28;20028;-86
2022/06/16 09:36:03;;;;;;;8.50;3.55;;;;;;;25.80;34.72;102274.44;5050469;28;20428;-86
2022/06/16 09:38:39;;;;;;;4.90;3.42;;;;;;;25.86;36.88;102268.78;5031823;28;20024;-86
2022/06/16 09:44:34;;;;;;;7.55;3.50;;;;;;;25.42;35.00;102271.56;5049833;28;20102;-86
2022/06/16 09:47:06;;;;;;;7.78;3.95;;;;;;;25.29;36.31;102273.31;5049943;28;20461;-86
2022/06/16 09:49:54;;;;;;;6.50;3.67;;;;;;;25.28;35.33;102268.94;5048653;28;20475;-86
2022/06/16 09:52:32;;;;;;;9.20;3.78;;;;;;;25.24;36.31;102265.63;5049903;28;20028;-86
2022/06/16 09:55:05;;;;;;;7.28;3.70;;;;;;;25.10;35.26;102270.94;5050358;28;20027;-86
2022/06/16 09:58:01;;;;;;;6.28;3.95;;;;;;;25.03;36.06;102269.63;5049813;28;20094;-87
2022/06/16 10:00:33;;;;;;;10.65;4.38;;;;;;;24.93;35.38;102263.16;5029562;28;20037;-90
2022/06/16 10:03:10;;;;;;;8.45;3.88;;;;;;;24.85;36.52;102265.38;5049163;28;20049;-90
2022/06/16 10:05:42;;;;;;;8.20;4.00;;;;;;;25.04;35.99;102269.50;5049492;28;20430;-90
2022/06/16 10:08:21;;;;;;;9.55;3.92;;;;;;;25.19;37.07;102270.34;5049099;28;20386;-90
2022/06/16 10:10:55;;;;;;;7.00;4.15;;;;;;;25.21;35.96;102270.25;5048405;28;20029;-90
2022/06/16 10:13:58;;;;;;;6.80;4.05;;;;;;;25.33;37.52;102275.66;5049278;28;20343;-90
2022/06/16 10:16:35;;;;;;;8.13;3.90;;;;;;;25.40;34.43;102279.63;5048887;28;20028;-90
2022/06/16 10:19:01;;;;;;;8.50;4.10;;;;;;;25.40;37.19;102270.81;5061734;28;20036;-90
2022/06/16 10:21:26;;;;;;;7.43;4.15;;;;;;;25.44;37.10;102275.00;5048797;28;20063;-90
2022/06/16 10:23:58;;;;;;;8.20;4.10;;;;;;;25.51;37.33;102266.53;5043097;28;20402;-90
2022/06/16 10:26:23;;;;;;;7.85;4.32;;;;;;;25.36;36.42;102266.66;5030838;28;20478;-90
2022/06/16 10:28:48;;;;;;;6.80;4.45;;;;;;;25.18;36.31;102263.34;5049518;28;20036;-89
2022/06/16 10:31:35;;;;;;;8.90;4.67;;;;;;;25.15;36.46;102263.53;5048368;28;20074;-90
2022/06/16 10:34:01;;;;;;;10.02;4.25;;;;;;;25.02;33.61;102265.25;5048927;28;20029;-89
2022/06/16 10:36:28;;;;;;;7.68;4.60;;;;;;;24.92;35.65;102261.44;5030999;28;20028;-89
2022/06/16 10:39:15;;;;;;;7.32;4.43;;;;;;;24.94;38.52;102271.03;5061365;28;20077;-90
2022/06/16 10:41:49;;;;;;;8.82;4.32;;;;;;;24.74;36.30;102268.72;5046229;28;20039;-90
2022/06/16 10:44:16;;;;;;;7.50;4.53;;;;;;;24.86;37.98;102262.66;5059934;28;20024;-90
2022/06/16 10:46:50;;;;;;;7.35;4.03;;;;;;;24.90;37.85;102266.88;5042194;28;20029;-90
2022/06/16 10:49:20;;;;;;;9.25;4.30;;;;;;;24.87;37.19;102274.13;5048672;28;20037;-90
2022/06/16 10:51:57;;;;;;;7.32;4.20;;;;;;;24.89;36.91;102273.09;5030546;28;20082;-89
2022/06/16 10:54:28;;;;;;;8.15;3.90;;;;;;;25.00;38.55;102275.97;5048617;28;20021;-90
2022/06/16 10:57:24;;;;;;;6.32;3.70;;;;;;;25.29;39.16;102279.47;5049044;28;20116;-89
2022/06/16 11:00:12;;;;;;;6.15;3.63;;;;;;;25.38;39.05;102283.34;5031276;28;20421;-87
2022/06/16 11:02:57;;;;;;;6.70;3.78;;;;;;;25.40;38.92;102284.09;5035932;28;20059;-86
2022/06/16 11:05:24;;;;;;;8.40;4.03;;;;;;;25.19;38.14;102275.66;5048472;28;20040;-86
2022/06/16 11:07:50;;;;;;;7.25;4.32;;;;;;;24.96;39.43;102278.91;5040269;28;20607;-86
2022/06/16 11:10:28;;;;;;;6.80;4.00;;;;;;;25.15;38.91;102272.38;5030056;28;20040;-87
2022/06/16 11:12:54;;;;;;;8.48;4.00;;;;;;;25.13;35.73;102270.75;5036006;28;20020;-86
2022/06/16 11:15:30;;;;;;;9.35;4.40;;;;;;;25.23;37.93;102279.00;5048450;28;20021;-86
2022/06/16 11:18:05;;;;;;;8.05;4.53;;;;;;;25.11;36.44;102277.97;5048372;28;20081;-86
2022/06/16 11:20:40;;;;;;;7.95;4.53;;;;;;;25.09;36.83;102279.84;5046471;28;20397;-86
2022/06/16 11:23:33;;;;;;;7.75;4.70;;;;;;;25.10;37.77;102276.25;5047967;28;20021;-87
2022/06/16 11:26:15;;;;;;;8.98;4.43;;;;;;;24.91;36.84;102265.91;5039466;28;20048;-87
2022/06/16 11:28:45;;;;;;;9.57;4.10;;;;;;;24.79;38.42;102263.97;5048199;28;20033;-86
2022/06/16 11:31:23;;;;;;;7.57;4.68;;;;;;;24.71;38.42;102251.16;5047431;28;20029;-86
2022/06/16 11:34:06;;;;;;;8.25;4.90;;;;;;;24.69;36.88;102260.19;5047751;28;20037;-86
2022/06/16 11:37:00;;;;;;;8.25;5.22;;;;;;;24.53;38.33;102260.25;5048344;28;20060;-86
2022/06/16 11:39:31;;;;;;;10.87;4.80;;;;;;;24.21;38.02;102256.00;5026068;28;20038;-86
2022/06/16 11:41:57;;;;;;;7.97;4.47;;;;;;;24.12;39.22;102254.69;5047667;28;20048;-86
2022/06/16 11:44:41;;;;;;;7.93;4.25;;;;;;;24.27;38.46;102264.44;5048460;28;20021;-86
2022/06/16 11:47:15;;;;;;;6.68;4.15;;;;;;;24.32;40.38;102257.06;5037503;28;20082;-86
2022/06/16 11:49:58;;;;;;;6.95;4.53;;;;;;;24.30;38.40;102263.38;5053416;28;20068;-86
2022/06/16 11:52:54;;;;;;;8.23;4.78;;;;;;;24.27;39.85;102266.22;5037517;28;20398;-86
2022/06/16 11:55:36;;;;;;;9.90;4.45;;;;;;;24.21;38.11;102258.63;5054975;28;20033;-86
2022/06/16 11:58:34;;;;;;;9.00;4.88;;;;;;;24.19;37.80;102255.19;5028539;28;20025;-86
2022/06/16 12:01:07;;;;;;;8.38;4.80;;;;;;;24.27;38.96;102256.47;5043368;28;20037;-90